sensor_id;sensor_type;location;lat;lon;timestamp;pressure;altitude;pressure_sealevel;temperature;humidity
13011;BME280;6786;57.632;11.962;2023-11-22T00:01:10;102270.19;;;18.80;39.84
13011;BME280;6786;57.632;11.962;2023-11-22T00:03:38;102273.84;;;18.79;39.89
13011;BME280;6786;57.632;11.962;2023-11-22T00:06:07;102269.31;;;18.79;39.83
13011;BME280;6786;57.632;11.962;2023-11-22T00:08:36;102261.38;;;18.78;39.83
13011;BME280;6786;57.632;11.962;2023-11-22T00:11:04;102270.38;;;18.77;39.92
13011;BME280;6786;57.632;11.962;2023-11-22T00:13:33;102273.84;;;18.79;39.81
13011;BME280;6786;57.632;11.962;2023-11-22T00:16:01;102275.75;;;18.77;39.89
13011;BME280;6786;57.632;11.962;2023-11-22T00:18:30;102265.91;;;18.77;39.87
13011;BME280;6786;57.632;11.962;2023-11-22T00:20:58;102260.53;;;18.77;39.78
13011;BME280;6786;57.632;11.962;2023-11-22T00:23:26;102260.53;;;18.77;39.89
13011;BME280;6786;57.632;11.962;2023-11-22T00:25:58;102249.94;;;18.76;39.77
13011;BME280;6786;57.632;11.962;2023-11-22T00:28:28;102254.31;;;18.77;39.96
13011;BME280;6786;57.632;11.962;2023-11-22T00:30:56;102238.25;;;18.77;39.78
13011;BME280;6786;57.632;11.962;2023-11-22T00:33:25;102234.78;;;18.75;39.90
13011;BME280;6786;57.632;11.962;2023-11-22T00:35:53;102238.25;;;18.77;39.69
13011;BME280;6786;57.632;11.962;2023-11-22T00:38:24;102213.56;;;18.72;39.76
13011;BME280;6786;57.632;11.962;2023-11-22T00:40:52;102223.88;;;18.78;39.77
13011;BME280;6786;57.632;11.962;2023-11-22T00:43:22;102227.34;;;18.80;39.71
13011;BME280;6786;57.632;11.962;2023-11-22T00:45:52;102230.97;;;18.79;39.89
13011;BME280;6786;57.632;11.962;2023-11-22T00:48:20;102230.97;;;18.79;39.67
13011;BME280;6786;57.632;11.962;2023-11-22T00:50:48;102223.69;;;18.81;39.82
13011;BME280;6786;57.632;11.962;2023-11-22T00:53:17;102211.47;;;18.77;39.82
13011;BME280;6786;57.632;11.962;2023-11-22T00:55:46;102211.25;;;18.80;39.81
13011;BME280;6786;57.632;11.962;2023-11-22T00:58:14;102209.56;;;18.79;39.78
13011;BME280;6786;57.632;11.962;2023-11-22T01:00:44;102207.81;;;18.78;39.82
13011;BME280;6786;57.632;11.962;2023-11-22T01:03:12;102203.22;;;18.80;39.69
13011;BME280;6786;57.632;11.962;2023-11-22T01:05:41;102200.56;;;18.80;39.69
13011;BME280;6786;57.632;11.962;2023-11-22T01:08:10;102211.25;;;18.80;39.79
13011;BME280;6786;57.632;11.962;2023-11-22T01:10:38;102210.38;;;18.79;39.70
13011;BME280;6786;57.632;11.962;2023-11-22T01:13:07;102211.25;;;18.80;39.73
13011;BME280;6786;57.632;11.962;2023-11-22T01:15:35;102209.56;;;18.79;39.68
13011;BME280;6786;57.632;11.962;2023-11-22T01:18:05;102222.94;;;18.79;39.62
13011;BME280;6786;57.632;11.962;2023-11-22T01:20:33;102225.63;;;18.79;39.69
13011;BME280;6786;57.632;11.962;2023-11-22T01:23:01;102220.28;;;18.79;39.85
13011;BME280;6786;57.632;11.962;2023-11-22T01:25:30;102217.59;;;18.79;39.71
13011;BME280;6786;57.632;11.962;2023-11-22T01:27:58;102221.97;;;18.80;39.63
13011;BME280;6786;57.632;11.962;2023-11-22T01:30:27;102220.28;;;18.79;39.98
13011;BME280;6786;57.632;11.962;2023-11-22T01:32:56;102221.97;;;18.80;39.74
13011;BME280;6786;57.632;11.962;2023-11-22T01:35:26;102221.97;;;18.80;39.73
13011;BME280;6786;57.632;11.962;2023-11-22T01:37:55;102225.63;;;18.79;39.62
13011;BME280;6786;57.632;11.962;2023-11-22T01:40:24;102219.41;;;18.78;39.63
13011;BME280;6786;57.632;11.962;2023-11-22T01:42:53;102220.47;;;18.76;39.69
13011;BME280;6786;57.632;11.962;2023-11-22T01:45:22;102229.25;;;18.78;39.69
13011;BME280;6786;57.632;11.962;2023-11-22T01:47:50;102225.63;;;18.79;39.73
13011;BME280;6786;57.632;11.962;2023-11-22T01:50:19;102220.28;;;18.79;39.70
13011;BME280;6786;57.632;11.962;2023-11-22T01:52:49;102214.03;;;18.78;39.71
13011;BME280;6786;57.632;11.962;2023-11-22T01:55:17;102209.75;;;18.76;39.76
13011;BME280;6786;57.632;11.962;2023-11-22T01:57:46;102204.19;;;18.79;39.71
13011;BME280;6786;57.632;11.962;2023-11-22T02:00:15;102203.22;;;18.80;39.64
13011;BME280;6786;57.632;11.962;2023-11-22T02:02:44;102195.19;;;18.80;39.59
13011;BME280;6786;57.632;11.962;2023-11-22T02:05:12;102195.19;;;18.80;39.78
13011;BME280;6786;57.632;11.962;2023-11-22T02:07:41;102201.53;;;18.79;39.64
13011;BME280;6786;57.632;11.962;2023-11-22T02:10:12;102193.47;;;18.79;39.57
13011;BME280;6786;57.632;11.962;2023-11-22T02:12:40;102184.47;;;18.80;39.53
13011;BME280;6786;57.632;11.962;2023-11-22T02:15:09;102194.31;;;18.79;39.67
13011;BME280;6786;57.632;11.962;2023-11-22T02:17:38;102205.91;;;18.80;39.85
13011;BME280;6786;57.632;11.962;2023-11-22T02:20:10;102205.03;;;18.79;39.78
13011;BME280;6786;57.632;11.962;2023-11-22T02:22:43;102193.69;;;18.76;39.68
13011;BME280;6786;57.632;11.962;2023-11-22T02:25:14;102191.75;;;18.78;39.68
13011;BME280;6786;57.632;11.962;2023-11-22T02:27:43;102189.94;;;18.78;39.61
13011;BME280;6786;57.632;11.962;2023-11-22T02:30:11;102196.16;;;18.79;39.69
13011;BME280;6786;57.632;11.962;2023-11-22T02:32:39;102193.47;;;18.79;39.61
13011;BME280;6786;57.632;11.962;2023-11-22T02:35:08;102181.03;;;18.78;39.74
13011;BME280;6786;57.632;11.962;2023-11-22T02:37:36;102172.06;;;18.79;39.56
13011;BME280;6786;57.632;11.962;2023-11-22T02:40:08;102157.69;;;18.80;39.56
13011;BME280;6786;57.632;11.962;2023-11-22T02:42:42;102152.34;;;18.80;39.59
13011;BME280;6786;57.632;11.962;2023-11-22T02:45:10;102157.69;;;18.80;39.60
13011;BME280;6786;57.632;11.962;2023-11-22T02:47:39;102139.03;;;18.78;39.64
13011;BME280;6786;57.632;11.962;2023-11-22T02:50:09;102136.25;;;18.80;39.58
13011;BME280;6786;57.632;11.962;2023-11-22T02:52:38;102138.94;;;18.80;39.51
13011;BME280;6786;57.632;11.962;2023-11-22T02:55:07;102120.19;;;18.80;39.62
13011;BME280;6786;57.632;11.962;2023-11-22T02:57:36;102136.25;;;18.80;39.56
13011;BME280;6786;57.632;11.962;2023-11-22T03:00:09;102121.91;;;18.81;39.62
13011;BME280;6786;57.632;11.962;2023-11-22T03:02:40;102116.53;;;18.81;39.63
13011;BME280;6786;57.632;11.962;2023-11-22T03:05:09;102120.19;;;18.80;39.57
13011;BME280;6786;57.632;11.962;2023-11-22T03:07:38;102123.84;;;18.79;39.67
13011;BME280;6786;57.632;11.962;2023-11-22T03:10:08;102121.91;;;18.81;39.69
13011;BME280;6786;57.632;11.962;2023-11-22T03:12:36;102132.63;;;18.81;39.60
13011;BME280;6786;57.632;11.962;2023-11-22T03:15:08;102121.91;;;18.81;39.62
13011;BME280;6786;57.632;11.962;2023-11-22T03:17:36;102098.97;;;18.77;39.53
13011;BME280;6786;57.632;11.962;2023-11-22T03:20:07;102093.41;;;18.80;39.58
13011;BME280;6786;57.632;11.962;2023-11-22T03:22:38;102086.44;;;18.77;39.69
13011;BME280;6786;57.632;11.962;2023-11-22T03:25:07;102080.97;;;18.79;39.58
13011;BME280;6786;57.632;11.962;2023-11-22T03:27:37;102075.63;;;18.79;39.58
13011;BME280;6786;57.632;11.962;2023-11-22T03:30:08;102070.25;;;18.79;39.53
13011;BME280;6786;57.632;11.962;2023-11-22T03:32:39;102063.94;;;18.80;39.57
13011;BME280;6786;57.632;11.962;2023-11-22T03:35:08;102057.59;;;18.81;39.54
13011;BME280;6786;57.632;11.962;2023-11-22T03:37:36;102045.19;;;18.80;39.70
13011;BME280;6786;57.632;11.962;2023-11-22T03:40:06;102036.19;;;18.81;39.50
13011;BME280;6786;57.632;11.962;2023-11-22T03:42:35;102035.25;;;18.82;39.57
13011;BME280;6786;57.632;11.962;2023-11-22T03:45:04;102013.03;;;18.80;39.60
13011;BME280;6786;57.632;11.962;2023-11-22T03:47:34;102038.84;;;18.81;39.57
13011;BME280;6786;57.632;11.962;2023-11-22T03:50:06;102054.00;;;18.82;39.45
13011;BME280;6786;57.632;11.962;2023-11-22T03:52:34;102050.34;;;18.83;39.60
13011;BME280;6786;57.632;11.962;2023-11-22T03:55:03;102048.63;;;18.82;39.59
13011;BME280;6786;57.632;11.962;2023-11-22T03:57:33;102048.63;;;18.82;39.49
13011;BME280;6786;57.632;11.962;2023-11-22T04:00:02;102037.91;;;18.82;39.57
13011;BME280;6786;57.632;11.962;2023-11-22T04:02:34;102037.91;;;18.82;39.60
13011;BME280;6786;57.632;11.962;2023-11-22T04:05:03;102040.59;;;18.82;39.49
13011;BME280;6786;57.632;11.962;2023-11-22T04:07:31;102037.91;;;18.82;39.57
13011;BME280;6786;57.632;11.962;2023-11-22T04:10:00;102017.53;;;18.79;39.61
13011;BME280;6786;57.632;11.962;2023-11-22T04:12:28;102018.19;;;18.83;39.56
13011;BME280;6786;57.632;11.962;2023-11-22T04:14:59;102026.22;;;18.83;39.44
13011;BME280;6786;57.632;11.962;2023-11-22T04:17:28;102029.88;;;18.82;39.56
13011;BME280;6786;57.632;11.962;2023-11-22T04:19:58;102025.47;;;18.81;39.51
13011;BME280;6786;57.632;11.962;2023-11-22T04:22:26;102026.22;;;18.83;39.50
13011;BME280;6786;57.632;11.962;2023-11-22T04:24:55;102024.53;;;18.82;39.64
13011;BME280;6786;57.632;11.962;2023-11-22T04:27:24;102027.22;;;18.82;39.54
13011;BME280;6786;57.632;11.962;2023-11-22T04:29:52;102016.50;;;18.82;39.54
13011;BME280;6786;57.632;11.962;2023-11-22T04:32:21;102005.78;;;18.82;39.61
13011;BME280;6786;57.632;11.962;2023-11-22T04:34:50;101991.41;;;18.83;39.46
13011;BME280;6786;57.632;11.962;2023-11-22T04:37:22;101996.78;;;18.83;39.59
13011;BME280;6786;57.632;11.962;2023-11-22T04:39:53;101988.72;;;18.83;39.54
13011;BME280;6786;57.632;11.962;2023-11-22T04:42:21;102000.41;;;18.82;39.48
13011;BME280;6786;57.632;11.962;2023-11-22T04:44:50;102016.50;;;18.82;39.66
13011;BME280;6786;57.632;11.962;2023-11-22T04:47:18;102027.22;;;18.82;39.63
13011;BME280;6786;57.632;11.962;2023-11-22T04:49:48;102016.50;;;18.82;39.61
13011;BME280;6786;57.632;11.962;2023-11-22T04:52:16;102039.63;;;18.83;39.66
13011;BME280;6786;57.632;11.962;2023-11-22T04:54:46;102028.91;;;18.83;39.61
13011;BME280;6786;57.632;11.962;2023-11-22T04:57:14;102002.31;;;18.80;39.62
13011;BME280;6786;57.632;11.962;2023-11-22T04:59:43;102008.47;;;18.82;39.54
13011;BME280;6786;57.632;11.962;2023-11-22T05:02:11;101996.78;;;18.83;39.64
13011;BME280;6786;57.632;11.962;2023-11-22T05:04:41;101975.34;;;18.83;39.58
13011;BME280;6786;57.632;11.962;2023-11-22T05:07:10;101970.09;;;18.81;39.66
13011;BME280;6786;57.632;11.962;2023-11-22T05:09:38;101959.25;;;18.83;39.51
13011;BME280;6786;57.632;11.962;2023-11-22T05:12:11;101943.19;;;18.83;39.65
13011;BME280;6786;57.632;11.962;2023-11-22T05:14:40;101939.53;;;18.84;39.56
13011;BME280;6786;57.632;11.962;2023-11-22T05:17:10;101939.53;;;18.84;39.65
13011;BME280;6786;57.632;11.962;2023-11-22T05:19:39;101933.25;;;18.85;39.58
13011;BME280;6786;57.632;11.962;2023-11-22T05:22:07;101928.00;;;18.83;39.65
13011;BME280;6786;57.632;11.962;2023-11-22T05:24:35;101896.69;;;18.84;39.68
13011;BME280;6786;57.632;11.962;2023-11-22T05:27:05;101893.06;;;18.85;39.57
13011;BME280;6786;57.632;11.962;2023-11-22T05:29:35;101885.97;;;18.84;39.55
13011;BME280;6786;57.632;11.962;2023-11-22T05:32:15;101912.75;;;18.84;39.66
13011;BME280;6786;57.632;11.962;2023-11-22T05:34:44;101912.75;;;18.84;39.59
13011;BME280;6786;57.632;11.962;2023-11-22T05:37:13;101902.03;;;18.84;39.46
13011;BME280;6786;57.632;11.962;2023-11-22T05:39:43;101912.75;;;18.84;39.51
13011;BME280;6786;57.632;11.962;2023-11-22T05:42:11;101932.47;;;18.83;39.67
13011;BME280;6786;57.632;11.962;2023-11-22T05:44:41;101939.53;;;18.84;39.59
13011;BME280;6786;57.632;11.962;2023-11-22T05:47:10;101928.81;;;18.84;39.71
13011;BME280;6786;57.632;11.962;2023-11-22T05:49:40;101926.25;;;18.82;39.62
13011;BME280;6786;57.632;11.962;2023-11-22T05:52:08;101916.41;;;18.83;39.65
13011;BME280;6786;57.632;11.962;2023-11-22T05:54:36;101911.06;;;18.83;39.63
13011;BME280;6786;57.632;11.962;2023-11-22T05:57:05;101905.69;;;18.83;39.59
13011;BME280;6786;57.632;11.962;2023-11-22T05:59:33;101890.50;;;18.83;39.73
13011;BME280;6786;57.632;11.962;2023-11-22T06:02:03;101912.75;;;18.84;39.68
13011;BME280;6786;57.632;11.962;2023-11-22T06:04:31;101907.41;;;18.84;39.63
13011;BME280;6786;57.632;11.962;2023-11-22T06:06:59;101918.97;;;18.84;39.66
13011;BME280;6786;57.632;11.962;2023-11-22T06:09:28;101931.50;;;18.84;39.60
13011;BME280;6786;57.632;11.962;2023-11-22T06:11:56;101917.19;;;18.85;39.50
13011;BME280;6786;57.632;11.962;2023-11-22T06:14:24;101907.41;;;18.84;39.56
13011;BME280;6786;57.632;11.962;2023-11-22T06:16:52;101912.75;;;18.84;39.87
13011;BME280;6786;57.632;11.962;2023-11-22T06:19:22;101912.03;;;18.82;39.60
13011;BME280;6786;57.632;11.962;2023-11-22T06:21:52;101907.41;;;18.84;39.61
13011;BME280;6786;57.632;11.962;2023-11-22T06:24:24;101928.81;;;18.84;39.75
13011;BME280;6786;57.632;11.962;2023-11-22T06:26:52;101913.72;;;18.83;39.70
13011;BME280;6786;57.632;11.962;2023-11-22T06:29:21;101921.75;;;18.83;39.59
13011;BME280;6786;57.632;11.962;2023-11-22T06:31:49;101911.06;;;18.83;39.67
13011;BME280;6786;57.632;11.962;2023-11-22T06:34:17;101894.97;;;18.83;39.77
13011;BME280;6786;57.632;11.962;2023-11-22T06:36:47;101903.00;;;18.83;39.69
13011;BME280;6786;57.632;11.962;2023-11-22T06:39:15;101885.13;;;18.83;39.73
13011;BME280;6786;57.632;11.962;2023-11-22T06:41:44;101889.63;;;18.83;39.74
13011;BME280;6786;57.632;11.962;2023-11-22T06:44:12;101887.91;;;18.82;39.70
13011;BME280;6786;57.632;11.962;2023-11-22T06:46:41;101868.19;;;18.83;39.77
13011;BME280;6786;57.632;11.962;2023-11-22T06:49:09;101860.16;;;18.83;39.74
13011;BME280;6786;57.632;11.962;2023-11-22T06:51:38;101861.13;;;18.82;39.80
13011;BME280;6786;57.632;11.962;2023-11-22T06:54:09;101846.75;;;18.83;39.79
13011;BME280;6786;57.632;11.962;2023-11-22T06:56:37;101846.75;;;18.83;39.78
13011;BME280;6786;57.632;11.962;2023-11-22T06:59:05;101846.00;;;18.81;39.70
13011;BME280;6786;57.632;11.962;2023-11-22T07:01:34;101840.53;;;18.82;39.77
13011;BME280;6786;57.632;11.962;2023-11-22T07:04:03;101833.47;;;18.81;39.77
13011;BME280;6786;57.632;11.962;2023-11-22T07:06:32;101834.34;;;18.82;39.76
13011;BME280;6786;57.632;11.962;2023-11-22T07:09:00;101844.19;;;18.81;39.68
13011;BME280;6786;57.632;11.962;2023-11-22T07:11:30;101829.00;;;18.82;39.63
13011;BME280;6786;57.632;11.962;2023-11-22T07:13:58;101836.06;;;18.83;39.66
13011;BME280;6786;57.632;11.962;2023-11-22T07:16:27;101837.03;;;18.82;39.74
13011;BME280;6786;57.632;11.962;2023-11-22T07:18:55;101832.81;;;18.78;39.64
13011;BME280;6786;57.632;11.962;2023-11-22T07:21:24;101825.34;;;18.83;39.87
13011;BME280;6786;57.632;11.962;2023-11-22T07:23:52;101817.31;;;18.83;39.74
13011;BME280;6786;57.632;11.962;2023-11-22T07:26:20;101819.97;;;18.83;39.72
13011;BME280;6786;57.632;11.962;2023-11-22T07:28:49;101817.31;;;18.83;39.69
13011;BME280;6786;57.632;11.962;2023-11-22T07:31:18;101812.06;;;18.81;39.64
13011;BME280;6786;57.632;11.962;2023-11-22T07:33:46;101815.59;;;18.82;39.59
13011;BME280;6786;57.632;11.962;2023-11-22T07:36:14;101819.97;;;18.83;39.73
13011;BME280;6786;57.632;11.962;2023-11-22T07:38:43;101818.28;;;18.82;39.82
13011;BME280;6786;57.632;11.962;2023-11-22T07:41:11;101807.56;;;18.82;39.72
13011;BME280;6786;57.632;11.962;2023-11-22T07:43:39;101805.81;;;18.81;39.77
13011;BME280;6786;57.632;11.962;2023-11-22T07:46:09;101808.41;;;18.82;39.78
13011;BME280;6786;57.632;11.962;2023-11-22T07:48:41;101806.59;;;18.83;39.74
13011;BME280;6786;57.632;11.962;2023-11-22T07:51:09;101800.47;;;18.81;39.71
13011;BME280;6786;57.632;11.962;2023-11-22T07:53:38;101801.34;;;18.81;39.76
13011;BME280;6786;57.632;11.962;2023-11-22T07:56:08;101792.31;;;18.82;39.73
13011;BME280;6786;57.632;11.962;2023-11-22T07:58:36;101798.56;;;18.83;39.70
13011;BME280;6786;57.632;11.962;2023-11-22T08:01:05;101783.44;;;18.82;39.76
13011;BME280;6786;57.632;11.962;2023-11-22T08:03:41;101791.50;;;18.82;39.66
13011;BME280;6786;57.632;11.962;2023-11-22T08:06:14;101779.03;;;18.81;39.76
13011;BME280;6786;57.632;11.962;2023-11-22T08:08:43;101765.66;;;18.81;39.69
13011;BME280;6786;57.632;11.962;2023-11-22T08:11:13;101769.19;;;18.81;39.77
13011;BME280;6786;57.632;11.962;2023-11-22T08:13:43;101773.69;;;18.81;39.80
13011;BME280;6786;57.632;11.962;2023-11-22T08:16:12;101775.41;;;18.82;39.88
13011;BME280;6786;57.632;11.962;2023-11-22T08:18:42;101775.41;;;18.82;39.59
13011;BME280;6786;57.632;11.962;2023-11-22T08:21:11;101775.41;;;18.82;39.76
13011;BME280;6786;57.632;11.962;2023-11-22T08:23:39;101760.19;;;18.82;39.71
13011;BME280;6786;57.632;11.962;2023-11-22T08:26:07;101746.91;;;18.81;39.72
13011;BME280;6786;57.632;11.962;2023-11-22T08:28:36;101700.97;;;18.62;39.84
13011;BME280;6786;57.632;11.962;2023-11-22T08:31:04;101745.97;;;18.82;39.81
13011;BME280;6786;57.632;11.962;2023-11-22T08:33:36;101716.50;;;18.82;39.66
13011;BME280;6786;57.632;11.962;2023-11-22T08:36:07;101709.28;;;18.82;39.71
13011;BME280;6786;57.632;11.962;2023-11-22T08:38:35;101707.59;;;18.81;39.77
13011;BME280;6786;57.632;11.962;2023-11-22T08:41:08;101704.03;;;18.81;39.80
13011;BME280;6786;57.632;11.962;2023-11-22T08:43:40;101693.34;;;18.81;39.85
13011;BME280;6786;57.632;11.962;2023-11-22T08:46:09;101682.63;;;18.81;39.80
13011;BME280;6786;57.632;11.962;2023-11-22T08:48:41;101626.22;;;18.59;39.70
13011;BME280;6786;57.632;11.962;2023-11-22T08:51:11;101647.81;;;18.81;39.66
13011;BME280;6786;57.632;11.962;2023-11-22T08:53:39;101637.84;;;18.83;39.68
13011;BME280;6786;57.632;11.962;2023-11-22T08:56:11;101648.78;;;18.80;39.69
13011;BME280;6786;57.632;11.962;2023-11-22T08:58:39;101643.19;;;18.83;39.72
13011;BME280;6786;57.632;11.962;2023-11-22T09:01:10;101644.91;;;18.84;39.68
13011;BME280;6786;57.632;11.962;2023-11-22T09:03:41;101636.13;;;18.82;39.68
13011;BME280;6786;57.632;11.962;2023-11-22T09:06:12;101627.34;;;18.80;39.84
13011;BME280;6786;57.632;11.962;2023-11-22T09:08:41;101620.06;;;18.82;39.77
13011;BME280;6786;57.632;11.962;2023-11-22T09:11:10;101614.72;;;18.82;39.73
13011;BME280;6786;57.632;11.962;2023-11-22T09:13:38;101595.97;;;18.82;39.73
13011;BME280;6786;57.632;11.962;2023-11-22T09:16:07;101587.94;;;18.82;39.66
13011;BME280;6786;57.632;11.962;2023-11-22T09:18:36;101582.56;;;18.82;39.75
13011;BME280;6786;57.632;11.962;2023-11-22T09:21:04;101561.16;;;18.82;39.77
13011;BME280;6786;57.632;11.962;2023-11-22T09:23:36;101545.06;;;18.82;39.80
13011;BME280;6786;57.632;11.962;2023-11-22T09:26:05;101545.06;;;18.82;39.79
13011;BME280;6786;57.632;11.962;2023-11-22T09:28:34;101545.91;;;18.82;39.71
13011;BME280;6786;57.632;11.962;2023-11-22T09:31:03;101536.06;;;18.83;39.70
13011;BME280;6786;57.632;11.962;2023-11-22T09:33:33;101518.28;;;18.82;39.71
13011;BME280;6786;57.632;11.962;2023-11-22T09:36:02;101494.91;;;18.84;39.76
13011;BME280;6786;57.632;11.962;2023-11-22T09:38:37;101482.72;;;18.80;39.67
13011;BME280;6786;57.632;11.962;2023-11-22T09:41:05;101493.22;;;18.83;39.65
13011;BME280;6786;57.632;11.962;2023-11-22T09:43:36;101493.22;;;18.83;39.84
13011;BME280;6786;57.632;11.962;2023-11-22T09:46:07;101477.13;;;18.83;39.86
13011;BME280;6786;57.632;11.962;2023-11-22T09:48:40;101467.41;;;18.82;39.73
13011;BME280;6786;57.632;11.962;2023-11-22T09:51:16;101460.19;;;18.82;39.81
13011;BME280;6786;57.632;11.962;2023-11-22T09:53:52;101456.69;;;18.82;39.84
13011;BME280;6786;57.632;11.962;2023-11-22T09:56:24;101428.94;;;18.83;39.74
13011;BME280;6786;57.632;11.962;2023-11-22T09:58:54;101428.94;;;18.83;39.86
13011;BME280;6786;57.632;11.962;2023-11-22T10:01:23;101419.09;;;18.83;39.71
13011;BME280;6786;57.632;11.962;2023-11-22T10:03:51;101411.88;;;18.84;39.76
13011;BME280;6786;57.632;11.962;2023-11-22T10:06:21;101396.78;;;18.83;39.76
13011;BME280;6786;57.632;11.962;2023-11-22T10:08:50;101411.88;;;18.84;39.90
13011;BME280;6786;57.632;11.962;2023-11-22T10:11:20;101389.50;;;18.85;39.77
13011;BME280;6786;57.632;11.962;2023-11-22T10:13:49;101394.00;;;18.84;39.80
13011;BME280;6786;57.632;11.962;2023-11-22T10:16:18;101388.63;;;18.84;39.72
13011;BME280;6786;57.632;11.962;2023-11-22T10:18:48;101384.16;;;18.85;39.76
13011;BME280;6786;57.632;11.962;2023-11-22T10:21:21;101363.66;;;18.84;39.83
13011;BME280;6786;57.632;11.962;2023-11-22T10:23:53;101354.81;;;18.83;39.87
13011;BME280;6786;57.632;11.962;2023-11-22T10:26:24;101346.66;;;18.85;39.85
13011;BME280;6786;57.632;11.962;2023-11-22T10:28:56;101341.28;;;18.85;39.79
13011;BME280;6786;57.632;11.962;2023-11-22T10:31:25;101338.63;;;18.85;39.77
13011;BME280;6786;57.632;11.962;2023-11-22T10:33:55;101325.22;;;18.85;39.86
13011;BME280;6786;57.632;11.962;2023-11-22T10:36:25;101319.88;;;18.85;39.81
13011;BME280;6786;57.632;11.962;2023-11-22T10:38:57;101326.91;;;18.86;39.88
13011;BME280;6786;57.632;11.962;2023-11-22T10:41:25;101332.28;;;18.86;39.81
13011;BME280;6786;57.632;11.962;2023-11-22T10:43:54;101344.69;;;18.87;39.88
13011;BME280;6786;57.632;11.962;2023-11-22T10:46:27;101331.41;;;18.85;39.87
13011;BME280;6786;57.632;11.962;2023-11-22T10:48:56;101332.28;;;18.86;39.90
13011;BME280;6786;57.632;11.962;2023-11-22T10:51:30;101316.22;;;18.86;39.86
13011;BME280;6786;57.632;11.962;2023-11-22T10:54:00;101304.75;;;18.84;39.90
13011;BME280;6786;57.632;11.962;2023-11-22T10:56:35;101311.09;;;18.83;39.79
13011;BME280;6786;57.632;11.962;2023-11-22T10:59:09;101310.09;;;18.84;39.77
13011;BME280;6786;57.632;11.962;2023-11-22T11:01:44;101312.66;;;18.85;39.86
13011;BME280;6786;57.632;11.962;2023-11-22T11:04:19;101266.31;;;18.85;39.78
13011;BME280;6786;57.632;11.962;2023-11-22T11:06:51;101236.09;;;18.83;39.83
13011;BME280;6786;57.632;11.962;2023-11-22T11:09:22;101225.38;;;18.83;39.76
13011;BME280;6786;57.632;11.962;2023-11-22T11:11:59;101250.25;;;18.85;39.78
13011;BME280;6786;57.632;11.962;2023-11-22T11:14:34;101225.16;;;18.86;39.86
13011;BME280;6786;57.632;11.962;2023-11-22T11:17:04;101218.09;;;18.85;39.83
13011;BME280;6786;57.632;11.962;2023-11-22T11:19:33;101209.06;;;18.86;39.89
13011;BME280;6786;57.632;11.962;2023-11-22T11:22:03;101207.38;;;18.85;39.89
13011;BME280;6786;57.632;11.962;2023-11-22T11:24:38;101180.59;;;18.85;39.79
13011;BME280;6786;57.632;11.962;2023-11-22T11:27:07;101169.88;;;18.85;39.78
13011;BME280;6786;57.632;11.962;2023-11-22T11:29:37;101159.41;;;18.82;39.96
13011;BME280;6786;57.632;11.962;2023-11-22T11:32:10;101177.94;;;18.85;39.84
13011;BME280;6786;57.632;11.962;2023-11-22T11:34:47;101210.78;;;18.87;39.88
13011;BME280;6786;57.632;11.962;2023-11-22T11:37:18;101193.00;;;18.86;39.89
13011;BME280;6786;57.632;11.962;2023-11-22T11:39:48;101179.63;;;18.86;39.99
13011;BME280;6786;57.632;11.962;2023-11-22T11:42:16;101167.22;;;18.85;39.89
13011;BME280;6786;57.632;11.962;2023-11-22T11:45:03;101172.56;;;18.85;39.88
13011;BME280;6786;57.632;11.962;2023-11-22T11:47:33;101167.91;;;18.87;39.94
13011;BME280;6786;57.632;11.962;2023-11-22T11:50:02;101157.19;;;18.87;39.85
13011;BME280;6786;57.632;11.962;2023-11-22T11:52:31;101156.38;;;18.86;39.77
13011;BME280;6786;57.632;11.962;2023-11-22T11:55:01;101145.66;;;18.86;39.73
13011;BME280;6786;57.632;11.962;2023-11-22T11:57:30;101146.50;;;18.87;39.92
13011;BME280;6786;57.632;11.962;2023-11-22T11:59:59;101135.78;;;18.87;39.88
13011;BME280;6786;57.632;11.962;2023-11-22T12:02:29;101119.72;;;18.87;39.83
13011;BME280;6786;57.632;11.962;2023-11-22T12:04:57;101123.38;;;18.86;39.90
13011;BME280;6786;57.632;11.962;2023-11-22T12:07:25;101121.44;;;18.88;39.84
13011;BME280;6786;57.632;11.962;2023-11-22T12:09:53;101123.13;;;18.89;39.93
13011;BME280;6786;57.632;11.962;2023-11-22T12:12:25;101117.78;;;18.89;39.84
13011;BME280;6786;57.632;11.962;2023-11-22T12:14:55;101106.19;;;18.88;39.96
13011;BME280;6786;57.632;11.962;2023-11-22T12:17:25;101114.59;;;18.84;39.86
13011;BME280;6786;57.632;11.962;2023-11-22T12:20:08;101097.34;;;18.88;39.93
13011;BME280;6786;57.632;11.962;2023-11-22T12:22:38;101101.94;;;18.86;39.92
13011;BME280;6786;57.632;11.962;2023-11-22T12:25:08;101096.34;;;18.89;39.95
13011;BME280;6786;57.632;11.962;2023-11-22T12:27:40;101085.63;;;18.89;39.93
13011;BME280;6786;57.632;11.962;2023-11-22T12:30:09;101071.50;;;18.87;39.78
13011;BME280;6786;57.632;11.962;2023-11-22T12:32:39;101072.38;;;18.87;40.00
13011;BME280;6786;57.632;11.962;2023-11-22T12:35:09;101068.69;;;18.88;39.93
13011;BME280;6786;57.632;11.962;2023-11-22T12:37:38;101051.81;;;18.88;39.89
13011;BME280;6786;57.632;11.962;2023-11-22T12:40:09;101054.47;;;18.88;40.02
13011;BME280;6786;57.632;11.962;2023-11-22T12:42:50;101049.81;;;18.90;40.50
13011;BME280;6786;57.632;11.962;2023-11-22T12:45:20;101029.63;;;18.86;40.47
13011;BME280;6786;57.632;11.962;2023-11-22T12:47:51;101018.16;;;18.95;40.37
13011;BME280;6786;57.632;11.962;2023-11-22T12:50:30;101024.25;;;18.97;40.70
13011;BME280;6786;57.632;11.962;2023-11-22T12:52:59;100997.22;;;19.00;40.56
13011;BME280;6786;57.632;11.962;2023-11-22T12:55:28;100989.06;;;19.01;40.54
13011;BME280;6786;57.632;11.962;2023-11-22T12:57:58;100989.88;;;19.02;40.74
13011;BME280;6786;57.632;11.962;2023-11-22T13:00:29;100953.50;;;18.99;40.44
13011;BME280;6786;57.632;11.962;2023-11-22T13:03:00;100960.16;;;19.05;40.76